createdAt,value
2022-09-15T00:02:20.891Z,98487.16
2022-09-15T00:04:47.464Z,98486.41
2022-09-15T00:07:14.176Z,98481.53
2022-09-15T00:09:40.777Z,98486.44
2022-09-15T00:12:07.328Z,98481.47
2022-09-15T00:14:33.768Z,98484.69
2022-09-15T00:17:00.280Z,98478.25
2022-09-15T00:19:26.966Z,98478.25
2022-09-15T00:21:53.612Z,98469.25
2022-09-15T00:24:20.116Z,98467.50
2022-09-15T00:26:46.627Z,98483.94
2022-09-15T00:29:13.071Z,98478.38
2022-09-15T00:31:39.616Z,98480.75
2022-09-15T00:34:07.232Z,98483.03
2022-09-15T00:36:34.111Z,98493.72
2022-09-15T00:39:00.976Z,98493.13
2022-09-15T00:41:28.124Z,98492.50
2022-09-15T00:44:06.421Z,98496.59
2022-09-15T00:46:39.881Z,98499.75
2022-09-15T00:49:11.414Z,98499.94
2022-09-15T00:51:54.982Z,98498.31
2022-09-15T00:54:28.558Z,98496.19
2022-09-15T00:56:57.080Z,98493.31
2022-09-15T00:59:25.572Z,98482.59
2022-09-15T01:02:11.437Z,98473.72
2022-09-15T01:04:38.006Z,98475.94
2022-09-15T01:07:05.871Z,98473.63
2022-09-15T01:09:39.633Z,98465.28
2022-09-15T01:12:06.274Z,98466.13
2022-09-15T01:14:32.697Z,98468.84
2022-09-15T01:17:06.850Z,98464.16
2022-09-15T01:20:07.714Z,98457.34
2022-09-15T01:22:56.055Z,98454.47
2022-09-15T01:25:35.249Z,98453.00
2022-09-15T01:28:39.039Z,98456.13
2022-09-15T01:31:57.065Z,98450.00
2022-09-15T01:34:24.556Z,98440.94
2022-09-15T01:36:55.763Z,98437.28
2022-09-15T01:39:27.067Z,98441.38
2022-09-15T01:41:57.127Z,98438.69
2022-09-15T01:44:28.145Z,98434.97
2022-09-15T01:46:58.310Z,98433.56
2022-09-15T01:49:27.029Z,98443.00
2022-09-15T01:51:54.384Z,98429.22
2022-09-15T01:54:28.889Z,98435.59
2022-09-15T01:56:55.766Z,98429.63
2022-09-15T01:59:22.318Z,98430.41
2022-09-15T02:01:53.747Z,98436.19
2022-09-15T02:04:27.844Z,98433.97
2022-09-15T02:07:11.636Z,98434.81
2022-09-15T02:10:02.144Z,98427.63
2022-09-15T02:12:56.472Z,98423.94
2022-09-15T02:15:51.626Z,98433.19
2022-09-15T02:18:24.170Z,98424.38
2022-09-15T02:20:53.689Z,98426.63
2022-09-15T02:23:26.187Z,98418.41
2022-09-15T02:26:06.389Z,98415.47
2022-09-15T02:28:35.753Z,98407.22
2022-09-15T02:31:03.633Z,98408.84
2022-09-15T02:33:34.956Z,98402.28
2022-09-15T02:36:02.417Z,98404.75
2022-09-15T02:38:34.310Z,98397.97
2022-09-15T02:41:01.229Z,98404.38
2022-09-15T02:43:28.056Z,98407.28
2022-09-15T02:45:55.155Z,98406.09
2022-09-15T02:48:21.963Z,98405.75
2022-09-15T02:50:48.391Z,98408.41
2022-09-15T02:53:14.829Z,98412.72
2022-09-15T02:55:41.964Z,98409.88
2022-09-15T02:58:08.550Z,98410.50
2022-09-15T03:00:35.018Z,98407.03
2022-09-15T03:03:01.555Z,98409.53
2022-09-15T03:05:29.490Z,98407.69
2022-09-15T03:07:56.559Z,98407.09
2022-09-15T03:10:24.471Z,98403.81
2022-09-15T03:12:52.468Z,98398.47
2022-09-15T03:15:21.466Z,98396.03
2022-09-15T03:17:48.525Z,98394.03
2022-09-15T03:20:18.607Z,98384.94
2022-09-15T03:22:45.140Z,98387.84
2022-09-15T03:25:11.700Z,98388.69
2022-09-15T03:27:38.292Z,98389.06
2022-09-15T03:30:06.270Z,98390.88
2022-09-15T03:32:33.002Z,98390.09
2022-09-15T03:34:59.631Z,98387.44
2022-09-15T03:37:26.193Z,98394.63
2022-09-15T03:39:52.698Z,98392.78
2022-09-15T03:42:19.796Z,98386.84
2022-09-15T03:44:46.230Z,98386.25
2022-09-15T03:47:13.211Z,98403.47
2022-09-15T03:49:39.682Z,98402.22
2022-09-15T03:52:06.138Z,98408.41
2022-09-15T03:54:32.664Z,98401.41
2022-09-15T03:56:59.120Z,98394.84
2022-09-15T03:59:25.545Z,98401.41
2022-09-15T04:01:52.282Z,98403.47
2022-09-15T04:04:18.775Z,98410.03
2022-09-15T04:06:45.240Z,98401.81
2022-09-15T04:09:11.779Z,98410.03
2022-09-15T04:11:39.452Z,98405.94
2022-09-15T04:14:05.892Z,98412.53
2022-09-15T04:16:32.563Z,98404.50
2022-09-15T04:18:59.338Z,98403.47
2022-09-15T04:21:26.757Z,98403.06
2022-09-15T04:23:54.015Z,98397.31
2022-09-15T04:26:30.035Z,98397.56
2022-09-15T04:29:00.510Z,98391.59
2022-09-15T04:31:29.841Z,98383.38
2022-09-15T04:33:57.207Z,98385.38
2022-09-15T04:36:25.850Z,98377.63
2022-09-15T04:38:52.834Z,98374.34
2022-09-15T04:41:19.829Z,98382.53
2022-09-15T04:43:46.913Z,98378.88
2022-09-15T04:46:14.223Z,98378.66
2022-09-15T04:48:41.433Z,98378.88
2022-09-15T04:51:11.542Z,98373.13
2022-09-15T04:53:38.337Z,98380.72
2022-09-15T04:56:06.538Z,98379.25
2022-09-15T04:58:44.067Z,98380.91
2022-09-15T05:01:13.354Z,98395.69
2022-09-15T05:03:40.502Z,98387.88
2022-09-15T05:06:09.088Z,98385.03
2022-09-15T05:08:35.690Z,98392.00
2022-09-15T05:11:04.618Z,98393.66
2022-09-15T05:13:32.108Z,98394.44
2022-09-15T05:16:04.966Z,98393.63
2022-09-15T05:18:33.229Z,98389.91
2022-09-15T05:21:00.925Z,98388.69
2022-09-15T05:23:27.874Z,98395.69
2022-09-15T05:25:58.730Z,98392.63
2022-09-15T05:28:25.181Z,98392.78
2022-09-15T05:30:52.776Z,98397.31
2022-09-15T05:33:20.315Z,98394.84
2022-09-15T05:35:51.707Z,98398.06
2022-09-15T05:38:18.212Z,98396.22
2022-09-15T05:40:44.910Z,98389.00
2022-09-15T05:43:11.349Z,98394.31
2022-09-15T05:45:37.853Z,98395.72
2022-09-15T05:48:04.681Z,98405.78
2022-09-15T05:50:32.036Z,98401.25
2022-09-15T05:52:58.595Z,98404.75
2022-09-15T05:55:25.116Z,98402.63
2022-09-15T05:57:51.647Z,98402.91
2022-09-15T06:00:19.025Z,98405.91
2022-09-15T06:02:45.660Z,98405.75
2022-09-15T06:05:12.154Z,98409.06
2022-09-15T06:07:39.039Z,98411.88
2022-09-15T06:10:06.080Z,98405.66
2022-09-15T06:12:33.063Z,98410.41
2022-09-15T06:14:59.867Z,98410.56
2022-09-15T06:17:26.478Z,98421.97
2022-09-15T06:19:53.247Z,98422.91
2022-09-15T06:22:19.908Z,98417.75
2022-09-15T06:24:46.440Z,98419.28
2022-09-15T06:27:12.932Z,98417.44
2022-09-15T06:29:39.337Z,98427.25
2022-09-15T06:32:06.154Z,98425.19
2022-09-15T06:34:33.084Z,98420.13
2022-09-15T06:36:59.989Z,98428.53
2022-09-15T06:39:27.048Z,98421.78
2022-09-15T06:42:02.371Z,98423.19
2022-09-15T06:44:31.863Z,98431.53
2022-09-15T06:46:58.428Z,98426.84
2022-09-15T06:49:25.313Z,98435.97
2022-09-15T06:51:51.916Z,98437.66
2022-09-15T06:54:18.514Z,98433.50
2022-09-15T06:56:45.115Z,98441.09
2022-09-15T06:59:12.759Z,98443.97
2022-09-15T07:01:39.615Z,98444.81
2022-09-15T07:04:08.493Z,98441.16
2022-09-15T07:06:35.187Z,98451.22
2022-09-15T07:09:02.700Z,98447.38
2022-09-15T07:11:29.864Z,98453.50
2022-09-15T07:13:57.061Z,98452.47
2022-09-15T07:16:25.881Z,98464.13
2022-09-15T07:18:55.195Z,98470.44
2022-09-15T07:21:21.794Z,98479.44
2022-09-15T07:23:49.249Z,98480.75
2022-09-15T07:26:18.539Z,98477.09
2022-09-15T07:28:49.944Z,98476.63
2022-09-15T07:31:18.777Z,98472.94
2022-09-15T07:33:48.230Z,98476.50
2022-09-15T07:36:18.033Z,98494.66
2022-09-15T07:38:46.676Z,98495.69
2022-09-15T07:41:16.084Z,98490.38
2022-09-15T07:43:49.716Z,98498.22
2022-09-15T07:46:17.680Z,98514.88
2022-09-15T07:48:49.092Z,98534.50
2022-09-15T07:51:16.760Z,98542.41
2022-09-15T07:53:44.594Z,98550.00
2022-09-15T07:56:11.521Z,98552.69
2022-09-15T07:58:37.979Z,98555.38
2022-09-15T08:01:07.281Z,98543.72
2022-09-15T08:03:34.105Z,98539.19
2022-09-15T08:06:01.703Z,98529.56
2022-09-15T08:08:28.928Z,98531.09
2022-09-15T08:10:55.817Z,98547.41
2022-09-15T08:13:22.559Z,98548.19
2022-09-15T08:15:49.280Z,98549.00
2022-09-15T08:18:16.252Z,98547.28
2022-09-15T08:20:43.819Z,98550.38
2022-09-15T08:23:11.238Z,98545.75
2022-09-15T08:25:40.618Z,98514.66
2022-09-15T08:28:07.126Z,98509.22
2022-09-15T08:30:33.655Z,98508.38
2022-09-15T08:33:00.276Z,98516.72
2022-09-15T08:35:26.734Z,98516.53
2022-09-15T08:37:55.308Z,98515.56
2022-09-15T08:40:32.378Z,98511.16
2022-09-15T08:43:03.822Z,98505.94
2022-09-15T08:45:40.266Z,98500.94
2022-09-15T08:48:08.451Z,98499.03
2022-09-15T08:50:44.803Z,98506.44
2022-09-15T08:53:17.825Z,98501.19
2022-09-15T08:55:48.727Z,98502.72
2022-09-15T08:58:18.024Z,98502.88
2022-09-15T09:00:46.059Z,98500.94
2022-09-15T09:03:33.949Z,98499.81
2022-09-15T09:06:10.540Z,98508.13
2022-09-15T09:09:15.587Z,98507.72
2022-09-15T09:11:48.305Z,98507.44
2022-09-15T09:14:48.475Z,98491.81
2022-09-15T09:18:08.217Z,98499.63
2022-09-15T09:20:53.772Z,98498.78
2022-09-15T09:23:24.025Z,98507.69
2022-09-15T09:25:52.109Z,98504.47
2022-09-15T09:28:32.829Z,98499.00
2022-09-15T09:31:07.858Z,98507.56
2022-09-15T09:33:47.359Z,98502.69
2022-09-15T09:36:14.715Z,98501.06
2022-09-15T09:38:44.160Z,98502.84
2022-09-15T09:41:25.503Z,98501.72
2022-09-15T09:43:55.759Z,98489.19
2022-09-15T09:46:22.568Z,98492.94
2022-09-15T09:48:54.829Z,98483.22
2022-09-15T09:51:37.276Z,98483.38
2022-09-15T09:54:11.827Z,98497.97
2022-09-15T09:56:39.089Z,98501.13
2022-09-15T09:59:05.725Z,98491.72
2022-09-15T10:01:32.483Z,98484.78
2022-09-15T10:04:19.284Z,98483.81
2022-09-15T10:06:46.554Z,98486.72
2022-09-15T10:09:18.076Z,98485.03
2022-09-15T10:11:50.379Z,98484.56
2022-09-15T10:14:22.208Z,98482.19
2022-09-15T10:17:07.895Z,98474.22
2022-09-15T10:19:55.188Z,98474.56
2022-09-15T10:22:32.513Z,98480.09
2022-09-15T10:25:01.039Z,98484.47
2022-09-15T10:27:32.705Z,98481.06
2022-09-15T10:30:12.473Z,98485.94
2022-09-15T10:32:39.509Z,98482.09
2022-09-15T10:35:18.609Z,98482.03
2022-09-15T10:37:59.866Z,98478.94
2022-09-15T10:40:33.724Z,98485.88
2022-09-15T10:43:02.907Z,98480.94
2022-09-15T10:45:39.905Z,98480.88
2022-09-15T10:48:16.481Z,98471.75
2022-09-15T10:51:02.344Z,98473.38
2022-09-15T10:53:49.053Z,98479.34
2022-09-15T10:56:18.303Z,98473.75
2022-09-15T10:58:56.962Z,98482.41
2022-09-15T11:01:29.417Z,98480.19
2022-09-15T11:04:11.485Z,98486.72
2022-09-15T11:06:49.175Z,98476.81
2022-09-15T11:09:23.114Z,98478.09
2022-09-15T11:11:55.107Z,98478.00
2022-09-15T11:14:40.567Z,98483.81
2022-09-15T11:17:29.133Z,98476.63
2022-09-15T11:20:08.023Z,98484.13
2022-09-15T11:22:39.119Z,98477.44
2022-09-15T11:25:13.770Z,98481.63
2022-09-15T11:27:43.932Z,98483.59
2022-09-15T11:30:17.945Z,98482.13
2022-09-15T11:33:05.689Z,98480.41
2022-09-15T11:35:54.516Z,98478.53
2022-09-15T11:38:48.338Z,98475.56
2022-09-15T11:41:19.157Z,98486.84
2022-09-15T11:43:58.217Z,98483.06
2022-09-15T11:46:45.718Z,98468.69
2022-09-15T11:49:18.103Z,98461.81
2022-09-15T11:51:52.623Z,98472.69
2022-09-15T11:54:45.133Z,98471.72
2022-09-15T11:57:18.047Z,98465.19
2022-09-15T12:00:05.166Z,98460.19
2022-09-15T12:02:42.834Z,98461.84
2022-09-15T12:05:24.819Z,98473.91
2022-09-15T12:07:58.732Z,98468.72
2022-09-15T12:10:35.539Z,98457.25
2022-09-15T12:13:02.554Z,98456.69
2022-09-15T12:15:29.366Z,98463.34
2022-09-15T12:18:34.311Z,98468.56
2022-09-15T12:21:02.033Z,98465.59
2022-09-15T12:23:42.170Z,98471.09
2022-09-15T12:26:16.110Z,98469.50
2022-09-15T12:29:22.574Z,98476.78
2022-09-15T12:31:49.037Z,98475.84
2022-09-15T12:35:01.166Z,98473.47
2022-09-15T12:37:47.268Z,98479.09
2022-09-15T12:40:39.081Z,98474.13
2022-09-15T12:43:12.633Z,98478.66
2022-09-15T12:45:41.155Z,98474.34
2022-09-15T12:48:16.611Z,98476.81
2022-09-15T12:50:44.268Z,98474.59
2022-09-15T12:53:29.081Z,98467.97
2022-09-15T12:56:07.000Z,98462.00
2022-09-15T12:58:36.727Z,98470.41
2022-09-15T13:01:19.120Z,98462.66
2022-09-15T13:03:45.892Z,98461.53
2022-09-15T13:06:31.182Z,98463.16
2022-09-15T13:09:06.436Z,98462.31
2022-09-15T13:14:16.679Z,98462.78
2022-09-15T13:17:04.088Z,98455.66
2022-09-15T13:19:33.222Z,98455.91
2022-09-15T13:22:36.296Z,98454.06
2022-09-15T13:25:13.888Z,98466.63
2022-09-15T13:27:50.472Z,98461.72
2022-09-15T13:30:41.196Z,98458.44
2022-09-15T13:39:53.803Z,98461.84
2022-09-15T13:42:44.880Z,98446.78
2022-09-15T13:45:29.517Z,98441.53
2022-09-15T13:47:58.720Z,98441.72
2022-09-15T13:50:49.093Z,98439.88
2022-09-15T13:53:24.267Z,98441.75
2022-09-15T13:55:51.818Z,98430.88
2022-09-15T14:01:12.443Z,98421.69
2022-09-15T14:03:38.864Z,98427.44
2022-09-15T14:06:35.574Z,98426.03
2022-09-15T14:09:08.589Z,98438.66
2022-09-15T14:11:36.587Z,98424.97
2022-09-15T14:14:04.352Z,98429.50
2022-09-15T14:16:36.177Z,98430.69
2022-09-15T14:19:24.532Z,98421.38
2022-09-15T14:21:53.764Z,98428.91
2022-09-15T14:24:30.098Z,98423.22
2022-09-15T14:27:03.347Z,98424.56
2022-09-15T14:29:30.068Z,98424.25
2022-09-15T14:32:00.766Z,98421.84
2022-09-15T14:34:31.158Z,98419.22
2022-09-15T14:37:12.947Z,98416.78
2022-09-15T14:39:40.460Z,98414.34
2022-09-15T14:42:30.949Z,98415.69
2022-09-15T14:48:16.621Z,98406.78
2022-09-15T14:50:44.636Z,98396.72
2022-09-15T14:53:18.894Z,98399.19
2022-09-15T14:55:56.795Z,98406.53
2022-09-15T14:58:24.459Z,98402.59
2022-09-15T15:00:59.386Z,98407.66
2022-09-15T15:03:28.503Z,98405.94
2022-09-15T15:06:12.756Z,98398.78
2022-09-15T15:09:00.355Z,98395.44
2022-09-15T15:11:28.013Z,98390.78
2022-09-15T15:13:55.125Z,98393.63
2022-09-15T15:16:29.944Z,98398.53
2022-09-15T15:18:57.252Z,98387.88
2022-09-15T15:21:38.696Z,98389.47
2022-09-15T15:24:13.697Z,98389.31
2022-09-15T15:26:42.397Z,98379.94
2022-09-15T15:29:45.507Z,98373.63
2022-09-15T15:32:21.233Z,98379.69
2022-09-15T15:34:54.547Z,98376.44
2022-09-15T15:37:27.907Z,98366.66
2022-09-15T15:39:56.299Z,98370.72
2022-09-15T15:42:24.057Z,98373.00
2022-09-15T15:45:16.556Z,98384.22
2022-09-15T15:47:43.032Z,98380.72
2022-09-15T15:50:13.686Z,98371.84
2022-09-15T15:52:41.789Z,98382.16
2022-09-15T15:55:08.530Z,98378.63
2022-09-15T15:57:38.185Z,98380.72
2022-09-15T16:00:16.557Z,98375.81
2022-09-15T16:02:46.429Z,98377.34
2022-09-15T16:05:13.647Z,98377.47
2022-09-15T16:07:40.691Z,98389.59
2022-09-15T16:10:08.516Z,98383.44
2022-09-15T16:12:35.589Z,98386.22
2022-09-15T16:15:02.935Z,98381.06
2022-09-15T16:17:29.532Z,98386.81
2022-09-15T16:19:56.075Z,98384.34
2022-09-15T16:22:22.509Z,98384.00
2022-09-15T16:24:48.985Z,98387.13
2022-09-15T16:27:17.783Z,98387.84
2022-09-15T16:29:45.344Z,98388.31
2022-09-15T16:32:18.656Z,98386.56
2022-09-15T16:34:45.498Z,98394.50
2022-09-15T16:37:12.474Z,98386.22
2022-09-15T16:39:39.044Z,98386.91
2022-09-15T16:42:05.865Z,98387.97
2022-09-15T16:44:32.747Z,98390.66
2022-09-15T16:46:59.573Z,98398.91
2022-09-15T16:49:26.156Z,98397.22
2022-09-15T16:51:53.057Z,98382.88
2022-09-15T16:54:23.116Z,98386.63
2022-09-15T16:56:49.558Z,98395.13
2022-09-15T16:59:16.277Z,98400.81
2022-09-15T17:01:42.894Z,98397.59
2022-09-15T17:04:13.922Z,98397.69
2022-09-15T17:06:40.363Z,98402.84
2022-09-15T17:09:06.942Z,98412.88
2022-09-15T17:11:33.460Z,98406.31
2022-09-15T17:14:00.526Z,98407.47
2022-09-15T17:16:27.318Z,98404.59
2022-09-15T17:18:53.809Z,98404.31
2022-09-15T17:21:20.516Z,98406.69
2022-09-15T17:23:49.204Z,98408.19
2022-09-15T17:26:20.085Z,98404.03
2022-09-15T17:28:47.089Z,98411.47
2022-09-15T17:31:16.656Z,98406.91
2022-09-15T17:33:44.096Z,98408.94
2022-09-15T17:36:10.943Z,98403.72
2022-09-15T17:38:37.372Z,98399.56
2022-09-15T17:41:03.875Z,98397.78
2022-09-15T17:43:31.793Z,98403.44
2022-09-15T17:45:58.444Z,98411.69
2022-09-15T17:48:25.417Z,98413.41
2022-09-15T17:50:52.432Z,98410.13
2022-09-15T17:53:24.172Z,98408.56
2022-09-15T17:55:50.995Z,98417.88
2022-09-15T17:58:18.337Z,98419.72
2022-09-15T18:00:46.115Z,98414.44
2022-09-15T18:03:30.952Z,98420.16
2022-09-15T18:05:59.002Z,98416.50
2022-09-15T18:08:26.291Z,98416.19
2022-09-15T18:10:52.802Z,98419.69
2022-09-15T18:13:21.646Z,98419.09
2022-09-15T18:15:51.554Z,98421.13
2022-09-15T18:18:24.155Z,98419.78
2022-09-15T18:20:52.956Z,98422.59
2022-09-15T18:23:24.252Z,98424.75
2022-09-15T18:25:50.957Z,98423.13
2022-09-15T18:28:18.218Z,98417.03
2022-09-15T18:30:47.466Z,98418.84
2022-09-15T18:33:22.229Z,98417.47
2022-09-15T18:35:50.430Z,98418.16
2022-09-15T18:38:17.576Z,98420.00
2022-09-15T18:40:49.271Z,98423.88
2022-09-15T18:43:16.639Z,98421.66
2022-09-15T18:45:43.131Z,98424.41
2022-09-15T18:48:12.912Z,98423.00
2022-09-15T18:50:40.727Z,98423.44
2022-09-15T18:53:07.446Z,98426.78
2022-09-15T18:55:33.920Z,98432.53
2022-09-15T18:58:01.247Z,98425.16
2022-09-15T19:00:29.445Z,98426.00
2022-09-15T19:03:00.568Z,98432.81
2022-09-15T19:05:28.533Z,98440.03
2022-09-15T19:07:55.373Z,98429.53
2022-09-15T19:10:22.162Z,98435.50
2022-09-15T19:12:48.662Z,98430.75
2022-09-15T19:15:15.777Z,98435.50
2022-09-15T19:17:42.903Z,98430.75
2022-09-15T19:20:11.747Z,98430.75
2022-09-15T19:22:38.398Z,98428.50
2022-09-15T19:25:06.087Z,98427.91
2022-09-15T19:27:32.738Z,98440.03
2022-09-15T19:29:59.958Z,98437.56
2022-09-15T19:32:27.045Z,98430.34
2022-09-15T19:34:53.561Z,98434.72
2022-09-15T19:37:21.447Z,98439.06
2022-09-15T19:39:48.781Z,98448.88
2022-09-15T19:44:47.901Z,98440.69
2022-09-15T19:47:14.628Z,98448.91
2022-09-15T19:49:41.096Z,98455.34
2022-09-15T19:52:07.816Z,98447.50
2022-09-15T19:54:34.721Z,98447.31
2022-09-15T19:57:01.636Z,98446.31
2022-09-15T19:59:31.371Z,98446.56
2022-09-15T20:01:59.518Z,98446.56
2022-09-15T20:04:26.454Z,98456.47
2022-09-15T20:06:52.998Z,98451.28
2022-09-15T20:09:19.444Z,98449.91
2022-09-15T20:11:45.976Z,98450.09
2022-09-15T20:14:12.468Z,98452.41
2022-09-15T20:16:39.339Z,98457.34
2022-09-15T20:19:06.120Z,98457.13
2022-09-15T20:21:51.123Z,98459.03
2022-09-15T20:24:19.595Z,98462.53
2022-09-15T20:26:46.242Z,98454.28
2022-09-15T20:29:13.208Z,98462.34
2022-09-15T20:31:40.173Z,98452.94
2022-09-15T20:34:06.667Z,98462.41
2022-09-15T20:36:36.388Z,98455.00
2022-09-15T20:39:04.936Z,98450.28
2022-09-15T20:41:32.234Z,98448.25
2022-09-15T20:43:59.081Z,98448.69
2022-09-15T20:46:26.060Z,98457.94
2022-09-15T20:48:52.790Z,98452.78
2022-09-15T20:51:22.813Z,98460.41
2022-09-15T20:53:51.830Z,98465.56
2022-09-15T20:56:21.155Z,98459.00
2022-09-15T20:58:48.056Z,98461.25
2022-09-15T21:01:16.655Z,98467.66
2022-09-15T21:03:44.485Z,98465.41
2022-09-15T21:06:13.023Z,98457.19
2022-09-15T21:08:39.915Z,98464.78
2022-09-15T21:11:10.640Z,98465.63
2022-09-15T21:13:38.690Z,98462.94
2022-09-15T21:16:08.169Z,98461.56
2022-09-15T21:18:39.186Z,98465.84
2022-09-15T21:21:07.991Z,98467.31
2022-09-15T21:23:42.693Z,98471.16
2022-09-15T21:26:17.269Z,98462.78
2022-09-15T21:28:44.952Z,98466.06
2022-09-15T21:31:14.980Z,98477.97
2022-09-15T21:33:42.256Z,98477.94
2022-09-15T21:36:17.398Z,98478.97
2022-09-15T21:38:44.346Z,98479.78
2022-09-15T21:41:13.760Z,98479.16
2022-09-15T21:43:41.961Z,98488.38
2022-09-15T21:46:11.780Z,98482.22
2022-09-15T21:48:38.612Z,98483.66
2022-09-15T21:51:05.972Z,98488.16
2022-09-15T21:53:33.875Z,98495.28
2022-09-15T21:56:05.560Z,98496.91
2022-09-15T21:58:37.930Z,98490.34
2022-09-15T22:01:29.870Z,98490.94
2022-09-15T22:03:59.163Z,98499.94
2022-09-15T22:06:30.528Z,98496.03
2022-09-15T22:08:58.772Z,98501.38
2022-09-15T22:11:25.283Z,98501.72
2022-09-15T22:13:51.787Z,98502.16
2022-09-15T22:16:21.296Z,98496.16
2022-09-15T22:18:47.914Z,98487.94
2022-09-15T22:21:19.669Z,98495.09
2022-09-15T22:23:47.798Z,98501.47
2022-09-15T22:26:19.073Z,98501.00
2022-09-15T22:28:45.827Z,98505.94
2022-09-15T22:31:13.809Z,98504.31
2022-09-15T22:33:43.117Z,98509.81
2022-09-15T22:36:11.642Z,98517.44
2022-09-15T22:38:38.710Z,98514.34
2022-09-15T22:41:08.950Z,98512.69
2022-09-15T22:43:36.299Z,98513.91
2022-09-15T22:46:04.873Z,98523.13
2022-09-15T22:48:32.299Z,98518.22
2022-09-15T22:50:59.249Z,98526.78
2022-09-15T22:53:25.927Z,98519.84
2022-09-15T22:55:53.468Z,98515.72
2022-09-15T22:58:19.930Z,98513.88
2022-09-15T23:00:46.493Z,98516.13
2022-09-15T23:03:13.333Z,98514.28
2022-09-15T23:05:39.823Z,98524.34
2022-09-15T23:08:06.294Z,98519.88
2022-09-15T23:10:33.240Z,98524.78
2022-09-15T23:12:59.870Z,98532.50
2022-09-15T23:15:26.518Z,98526.13
2022-09-15T23:17:53.082Z,98530.78
2022-09-15T23:20:19.484Z,98531.16
2022-09-15T23:22:45.952Z,98525.84
2022-09-15T23:25:12.523Z,98526.63
2022-09-15T23:27:38.996Z,98524.34
2022-09-15T23:30:05.745Z,98524.31
2022-09-15T23:32:32.357Z,98524.69
2022-09-15T23:34:58.775Z,98523.63
2022-09-15T23:37:25.273Z,98529.81
2022-09-15T23:39:52.340Z,98523.28
2022-09-15T23:42:19.198Z,98526.53
2022-09-15T23:44:45.784Z,98529.72
2022-09-15T23:47:12.209Z,98528.03
2022-09-15T23:49:38.630Z,98533.28
2022-09-15T23:52:05.040Z,98530.00
2022-09-15T23:54:32.316Z,98536.34
2022-09-15T23:56:58.761Z,98529.75
2022-09-15T23:59:25.266Z,98525.47
